Albertville, MN (55301)

1:09 AM CDT on September 03, 2015 (GMT -0500)
Royal Meadows | | Change Station
CLOSE
Current Station
Personal Weather Station
Location: Saint Michael, MN
Elevation: 935 ft
Nearby Weather Stations

Elev 935 ft 45.22 °N, 93.69 °W | Updated 51 seconds ago

Mostly Cloudy
Mostly Cloudy
68.5 °F
Feels Like 68.5 °F
N
6.9
Wind Variable Wind from NE
Gusts 6.9 mph

Today
High -- | Low -- °F
--% Chance of Precip.
Yesterday
High -- | Low -- °F
Precip. -- in
6:38 AM 7:48 PM
Waning Gibbous, 73% visible
Pressure 29.92 in
Visibility 10.0 miles
Clouds Mostly Cloudy 2800 ft
Dew Point 67 °F
Humidity 96%
Rainfall 0.00 in
Snow Depth Not available.
UV 0 out of 12
Pollen 10.00 out of 12
Air Quality Not available.
Flu Activity Not available.
METAR KCFE 030555Z AUTO 07005KT 10SM BKN028 20/19 A2992 RMK AO2 T02000185 10238 20197 402540186
Pressure 29.92 in
Visibility 10.0 miles
Clouds Mostly Cloudy 2800 ft
Dew Point 67 °F
Humidity 96%
Rainfall 0.00 in
Snow Depth Not available.
UV 0 out of 12
Pollen 10.00 out of 12
Air Quality Not available.
Flu Activity Not available.
METAR KCFE 030555Z AUTO 07005KT 10SM BKN028 20/19 A2992 RMK AO2 T02000185 10238 20197 402540186

10-Day Weather Forecast

×

Almanac

Astronomy

Sep. 03, 2015 Rise Set
Actual Time
Civil Twilight
Nautical Twilight
Astronomical Twilight
Moon
Length of Visible Light
Length of Day
Tomorrow will be .
, % of the Moon is Illuminated

Today's Extremes

State Highs State Lows

Community

WunderPhotos

Upload Photos

1,851,914 photos uploaded!

WunderBlogs® & News

Nearby

Air Quality

  Air Quality AQ Index Pollutant
Not available.

Snow Depth

Station Depth Elevation

Earthquake Activity

City Distance Mag. Time & Date
Minimum magnitude displayed is 2.5.

Coastal Water Temperatures

Place Temperature

Stations

Nearby Weather Stations

Station Location Temp. Windchill Dew Point Humidity Wind Precip. Elev Updated Type